sensor_id;sensor_type;location;lat;lon;timestamp;pressure;altitude;pressure_sealevel;temperature;humidity
81125;BME280;72192;52.114;5.424;2024-03-02T00:01:53;99896.69;;;8.34;82.37
81125;BME280;72192;52.114;5.424;2024-03-02T00:04:21;99896.22;;;8.30;82.42
81125;BME280;72192;52.114;5.424;2024-03-02T00:06:53;99905.28;;;8.29;82.69
81125;BME280;72192;52.114;5.424;2024-03-02T00:09:24;99909.16;;;8.35;82.42
81125;BME280;72192;52.114;5.424;2024-03-02T00:11:55;99894.53;;;8.29;82.36
81125;BME280;72192;52.114;5.424;2024-03-02T00:14:24;99906.78;;;8.40;81.88
81125;BME280;72192;52.114;5.424;2024-03-02T00:16:55;99903.56;;;8.45;81.25
81125;BME280;72192;52.114;5.424;2024-03-02T00:19:24;99914.34;;;8.45;81.45
81125;BME280;72192;52.114;5.424;2024-03-02T00:21:53;99923.91;;;8.55;80.98
81125;BME280;72192;52.114;5.424;2024-03-02T00:24:34;99933.47;;;8.58;81.13
81125;BME280;72192;52.114;5.424;2024-03-02T00:27:04;99948.44;;;8.60;80.80
81125;BME280;72192;52.114;5.424;2024-03-02T00:29:34;99952.78;;;8.61;81.11
81125;BME280;72192;52.114;5.424;2024-03-02T00:34:32;99969.66;;;8.55;81.65
81125;BME280;72192;52.114;5.424;2024-03-02T00:37:01;99960.06;;;8.45;81.96
81125;BME280;72192;52.114;5.424;2024-03-02T00:39:30;99986.47;;;8.49;82.13
81125;BME280;72192;52.114;5.424;2024-03-02T00:41:58;99982.28;;;8.39;82.37
81125;BME280;72192;52.114;5.424;2024-03-02T00:44:34;100011.34;;;8.51;83.20
81125;BME280;72192;52.114;5.424;2024-03-02T00:49:40;100015.19;;;8.32;84.62
81125;BME280;72192;52.114;5.424;2024-03-02T00:52:07;99995.72;;;8.14;85.72
81125;BME280;72192;52.114;5.424;2024-03-02T00:57:04;100011.03;;;7.97;87.47
81125;BME280;72192;52.114;5.424;2024-03-02T00:59:31;100011.03;;;7.81;89.66
81125;BME280;72192;52.114;5.424;2024-03-02T01:04:27;99993.84;;;7.41;91.93
81125;BME280;72192;52.114;5.424;2024-03-02T01:06:55;100025.75;;;7.53;91.53
81125;BME280;72192;52.114;5.424;2024-03-02T01:09:29;100024.41;;;7.48;92.39
81125;BME280;72192;52.114;5.424;2024-03-02T01:11:57;100002.88;;;7.32;92.46
81125;BME280;72192;52.114;5.424;2024-03-02T01:14:24;100033.91;;;7.35;93.57
81125;BME280;72192;52.114;5.424;2024-03-02T01:16:51;100028.69;;;7.25;95.36
81125;BME280;72192;52.114;5.424;2024-03-02T01:19:22;100028.81;;;7.15;96.70
81125;BME280;72192;52.114;5.424;2024-03-02T01:21:50;100006.47;;;7.07;97.03
81125;BME280;72192;52.114;5.424;2024-03-02T01:24:22;100028.44;;;7.02;98.38
81125;BME280;72192;52.114;5.424;2024-03-02T01:29:17;100036.78;;;6.91;97.85
81125;BME280;72192;52.114;5.424;2024-03-02T01:31:45;100042.44;;;6.88;97.68
81125;BME280;72192;52.114;5.424;2024-03-02T01:34:14;100039.31;;;6.93;97.84
81125;BME280;72192;52.114;5.424;2024-03-02T01:36:46;100038.47;;;6.92;98.32
81125;BME280;72192;52.114;5.424;2024-03-02T01:39:18;100016.91;;;6.76;98.38
81125;BME280;72192;52.114;5.424;2024-03-02T01:41:46;100050.72;;;6.95;98.48
81125;BME280;72192;52.114;5.424;2024-03-02T01:44:23;100051.88;;;6.92;99.22
81125;BME280;72192;52.114;5.424;2024-03-02T01:46:53;100041.94;;;6.84;99.36
81125;BME280;72192;52.114;5.424;2024-03-02T01:49:22;100050.50;;;6.88;98.86
81125;BME280;72192;52.114;5.424;2024-03-02T01:51:52;100050.00;;;6.84;99.59
81125;BME280;72192;52.114;5.424;2024-03-02T01:54:20;100026.63;;;6.69;99.82
81125;BME280;72192;52.114;5.424;2024-03-02T01:56:50;100051.47;;;6.79;99.77
81125;BME280;72192;52.114;5.424;2024-03-02T01:59:18;100024.72;;;6.61;100.00
81125;BME280;72192;52.114;5.424;2024-03-02T02:01:47;100032.09;;;6.67;100.00
81125;BME280;72192;52.114;5.424;2024-03-02T02:04:15;100030.25;;;6.59;100.00
81125;BME280;72192;52.114;5.424;2024-03-02T02:06:46;100051.59;;;6.69;100.00
81125;BME280;72192;52.114;5.424;2024-03-02T02:09:14;100030.91;;;6.61;100.00
81125;BME280;72192;52.114;5.424;2024-03-02T02:11:42;100039.59;;;6.55;100.00
81125;BME280;72192;52.114;5.424;2024-03-02T02:14:15;100066.63;;;6.62;100.00
81125;BME280;72192;52.114;5.424;2024-03-02T02:16:44;100041.22;;;6.48;100.00
81125;BME280;72192;52.114;5.424;2024-03-02T02:19:12;100035.34;;;6.45;100.00
81125;BME280;72192;52.114;5.424;2024-03-02T02:21:44;100055.63;;;6.47;100.00
81125;BME280;72192;52.114;5.424;2024-03-02T02:24:13;100052.59;;;6.42;100.00
81125;BME280;72192;52.114;5.424;2024-03-02T02:26:41;100046.16;;;6.35;100.00
81125;BME280;72192;52.114;5.424;2024-03-02T02:29:10;100017.38;;;6.19;100.00
81125;BME280;72192;52.114;5.424;2024-03-02T02:31:43;100043.56;;;6.25;100.00
81125;BME280;72192;52.114;5.424;2024-03-02T02:36:39;100024.69;;;6.09;100.00
81125;BME280;72192;52.114;5.424;2024-03-02T02:39:10;100050.69;;;6.17;100.00
81125;BME280;72192;52.114;5.424;2024-03-02T02:44:12;100054.03;;;6.11;100.00
81125;BME280;72192;52.114;5.424;2024-03-02T02:46:40;100053.69;;;6.14;100.00
81125;BME280;72192;52.114;5.424;2024-03-02T02:49:09;100046.97;;;6.10;100.00
81125;BME280;72192;52.114;5.424;2024-03-02T02:51:40;100040.47;;;6.12;100.00
81125;BME280;72192;52.114;5.424;2024-03-02T02:54:09;100057.38;;;6.13;100.00
81125;BME280;72192;52.114;5.424;2024-03-02T02:56:36;100042.22;;;6.03;100.00
81125;BME280;72192;52.114;5.424;2024-03-02T02:59:05;100049.75;;;6.00;100.00
81125;BME280;72192;52.114;5.424;2024-03-02T03:01:35;100043.31;;;5.93;100.00
81125;BME280;72192;52.114;5.424;2024-03-02T03:04:03;100048.00;;;5.91;100.00
81125;BME280;72192;52.114;5.424;2024-03-02T03:06:32;100043.47;;;5.91;100.00
81125;BME280;72192;52.114;5.424;2024-03-02T03:09:00;100033.16;;;5.87;100.00
81125;BME280;72192;52.114;5.424;2024-03-02T03:11:29;100039.38;;;5.87;100.00
81125;BME280;72192;52.114;5.424;2024-03-02T03:13:57;100049.19;;;5.96;100.00
81125;BME280;72192;52.114;5.424;2024-03-02T03:16:26;100052.03;;;5.95;100.00
81125;BME280;72192;52.114;5.424;2024-03-02T03:18:55;100062.81;;;6.03;100.00
81125;BME280;72192;52.114;5.424;2024-03-02T03:21:24;100043.88;;;5.87;100.00
81125;BME280;72192;52.114;5.424;2024-03-02T03:23:54;100046.16;;;5.91;100.00
81125;BME280;72192;52.114;5.424;2024-03-02T03:26:23;100057.38;;;5.95;100.00
81125;BME280;72192;52.114;5.424;2024-03-02T03:28:51;100042.88;;;5.88;100.00
81125;BME280;72192;52.114;5.424;2024-03-02T03:31:20;100041.97;;;5.79;100.00
81125;BME280;72192;52.114;5.424;2024-03-02T03:33:50;100062.78;;;5.85;100.00
81125;BME280;72192;52.114;5.424;2024-03-02T03:36:18;100067.84;;;5.88;100.00
81125;BME280;72192;52.114;5.424;2024-03-02T03:38:46;100063.47;;;5.87;100.00
81125;BME280;72192;52.114;5.424;2024-03-02T03:41:15;100054.53;;;5.79;100.00
81125;BME280;72192;52.114;5.424;2024-03-02T03:43:43;100060.88;;;5.78;100.00
81125;BME280;72192;52.114;5.424;2024-03-02T03:46:11;100083.34;;;5.94;100.00
81125;BME280;72192;52.114;5.424;2024-03-02T03:48:41;100049.16;;;5.79;100.00
81125;BME280;72192;52.114;5.424;2024-03-02T03:51:10;100085.25;;;6.02;100.00
81125;BME280;72192;52.114;5.424;2024-03-02T03:53:37;100085.41;;;6.00;100.00
81125;BME280;72192;52.114;5.424;2024-03-02T03:56:05;100075.66;;;5.99;100.00
81125;BME280;72192;52.114;5.424;2024-03-02T03:58:34;100060.47;;;6.00;100.00
81125;BME280;72192;52.114;5.424;2024-03-02T04:01:02;100079.66;;;6.13;100.00
81125;BME280;72192;52.114;5.424;2024-03-02T04:03:31;100059.06;;;6.14;100.00
81125;BME280;72192;52.114;5.424;2024-03-02T04:06:00;100068.47;;;6.18;100.00
81125;BME280;72192;52.114;5.424;2024-03-02T04:08:28;100068.47;;;6.18;100.00
81125;BME280;72192;52.114;5.424;2024-03-02T04:10:58;100079.25;;;6.26;100.00
81125;BME280;72192;52.114;5.424;2024-03-02T04:13:26;100075.06;;;6.23;100.00
81125;BME280;72192;52.114;5.424;2024-03-02T04:15:54;100077.56;;;6.25;100.00
81125;BME280;72192;52.114;5.424;2024-03-02T04:18:23;100074.31;;;6.13;100.00
81125;BME280;72192;52.114;5.424;2024-03-02T04:20:52;100074.16;;;6.15;100.00
81125;BME280;72192;52.114;5.424;2024-03-02T04:23:20;100069.78;;;6.14;100.00
81125;BME280;72192;52.114;5.424;2024-03-02T04:25:48;100085.38;;;6.18;100.00
81125;BME280;72192;52.114;5.424;2024-03-02T04:28:17;100074.38;;;6.21;100.00
81125;BME280;72192;52.114;5.424;2024-03-02T04:30:45;100086.97;;;6.29;100.00
81125;BME280;72192;52.114;5.424;2024-03-02T04:33:13;100081.50;;;6.30;100.00
81125;BME280;72192;52.114;5.424;2024-03-02T04:35:42;100095.94;;;6.38;100.00
81125;BME280;72192;52.114;5.424;2024-03-02T04:38:13;100079.56;;;6.23;100.00
81125;BME280;72192;52.114;5.424;2024-03-02T04:40:41;100074.66;;;6.18;100.00
81125;BME280;72192;52.114;5.424;2024-03-02T04:43:10;100104.63;;;6.31;100.00
81125;BME280;72192;52.114;5.424;2024-03-02T04:45:42;100089.63;;;6.21;100.00
81125;BME280;72192;52.114;5.424;2024-03-02T04:48:10;100094.13;;;6.20;100.00
81125;BME280;72192;52.114;5.424;2024-03-02T04:50:39;100107.06;;;6.25;100.00
81125;BME280;72192;52.114;5.424;2024-03-02T04:53:08;100114.41;;;6.23;100.00
81125;BME280;72192;52.114;5.424;2024-03-02T04:55:36;100114.25;;;6.24;100.00
81125;BME280;72192;52.114;5.424;2024-03-02T04:58:09;100126.66;;;6.25;100.00
81125;BME280;72192;52.114;5.424;2024-03-02T05:00:38;100131.34;;;6.23;100.00
81125;BME280;72192;52.114;5.424;2024-03-02T05:03:08;100120.78;;;6.22;100.00
81125;BME280;72192;52.114;5.424;2024-03-02T05:05:39;100109.97;;;6.14;100.00
81125;BME280;72192;52.114;5.424;2024-03-02T05:08:07;100115.34;;;6.14;100.00
81125;BME280;72192;52.114;5.424;2024-03-02T05:10:35;100122.78;;;6.20;99.92
81125;BME280;72192;52.114;5.424;2024-03-02T05:13:06;100132.03;;;6.25;99.88
81125;BME280;72192;52.114;5.424;2024-03-02T05:18:03;100115.56;;;6.20;99.23
81125;BME280;72192;52.114;5.424;2024-03-02T05:20:35;100131.03;;;6.26;98.83
81125;BME280;72192;52.114;5.424;2024-03-02T05:23:03;100122.63;;;6.21;98.58
81125;BME280;72192;52.114;5.424;2024-03-02T05:25:31;100136.09;;;6.29;98.30
81125;BME280;72192;52.114;5.424;2024-03-02T05:28:00;100127.66;;;6.24;98.33
81125;BME280;72192;52.114;5.424;2024-03-02T05:30:29;100116.53;;;6.19;97.97
81125;BME280;72192;52.114;5.424;2024-03-02T05:32:59;100137.38;;;6.25;97.86
81125;BME280;72192;52.114;5.424;2024-03-02T05:35:27;100137.38;;;6.25;97.64
81125;BME280;72192;52.114;5.424;2024-03-02T05:37:55;100139.47;;;6.31;97.18
81125;BME280;72192;52.114;5.424;2024-03-02T05:40:24;100138.78;;;6.29;96.09
81125;BME280;72192;52.114;5.424;2024-03-02T05:42:58;100141.47;;;6.29;96.34
81125;BME280;72192;52.114;5.424;2024-03-02T05:45:26;100141.38;;;6.21;95.98
81125;BME280;72192;52.114;5.424;2024-03-02T05:47:54;100136.38;;;6.09;95.40
81125;BME280;72192;52.114;5.424;2024-03-02T05:50:23;100119.47;;;5.90;95.13
81125;BME280;72192;52.114;5.424;2024-03-02T05:52:52;100125.38;;;5.94;95.08
81125;BME280;72192;52.114;5.424;2024-03-02T05:55:22;100114.19;;;5.98;93.71
81125;BME280;72192;52.114;5.424;2024-03-02T05:57:52;100150.03;;;6.15;93.33
81125;BME280;72192;52.114;5.424;2024-03-02T06:00:39;100142.13;;;6.14;93.19
81125;BME280;72192;52.114;5.424;2024-03-02T06:03:07;100143.13;;;6.13;93.26
81125;BME280;72192;52.114;5.424;2024-03-02T06:05:36;100138.94;;;6.10;93.66
81125;BME280;72192;52.114;5.424;2024-03-02T06:08:06;100155.84;;;6.11;94.76
81125;BME280;72192;52.114;5.424;2024-03-02T06:10:34;100142.66;;;5.99;94.89
81125;BME280;72192;52.114;5.424;2024-03-02T06:13:02;100170.25;;;6.10;95.31
81125;BME280;72192;52.114;5.424;2024-03-02T06:15:31;100150.16;;;5.96;95.91
81125;BME280;72192;52.114;5.424;2024-03-02T06:18:02;100158.50;;;5.93;96.49
81125;BME280;72192;52.114;5.424;2024-03-02T06:20:31;100161.72;;;5.96;96.70
81125;BME280;72192;52.114;5.424;2024-03-02T06:23:05;100154.31;;;5.90;96.83
81125;BME280;72192;52.114;5.424;2024-03-02T06:25:32;100182.56;;;6.02;97.09
81125;BME280;72192;52.114;5.424;2024-03-02T06:30:28;100172.75;;;5.93;97.45
81125;BME280;72192;52.114;5.424;2024-03-02T06:32:57;100192.50;;;5.92;97.36
81125;BME280;72192;52.114;5.424;2024-03-02T06:35:26;100182.03;;;5.89;97.81
81125;BME280;72192;52.114;5.424;2024-03-02T06:37:54;100162.81;;;5.76;97.47
81125;BME280;72192;52.114;5.424;2024-03-02T06:40:22;100187.28;;;5.91;97.75
81125;BME280;72192;52.114;5.424;2024-03-02T06:42:50;100188.22;;;5.90;97.41
81125;BME280;72192;52.114;5.424;2024-03-02T06:45:19;100178.13;;;5.84;97.34
81125;BME280;72192;52.114;5.424;2024-03-02T06:47:47;100191.19;;;5.96;97.42
81125;BME280;72192;52.114;5.424;2024-03-02T06:50:16;100172.28;;;5.98;96.77
81125;BME280;72192;52.114;5.424;2024-03-02T06:52:44;100178.03;;;6.03;96.58
81125;BME280;72192;52.114;5.424;2024-03-02T06:55:13;100185.00;;;6.14;96.60
81125;BME280;72192;52.114;5.424;2024-03-02T06:57:40;100178.03;;;6.03;96.08
81125;BME280;72192;52.114;5.424;2024-03-02T07:00:09;100189.38;;;6.15;96.54
81125;BME280;72192;52.114;5.424;2024-03-02T07:02:39;100185.84;;;6.14;96.33
81125;BME280;72192;52.114;5.424;2024-03-02T07:05:10;100195.56;;;6.15;96.60
81125;BME280;72192;52.114;5.424;2024-03-02T07:07:39;100182.50;;;6.12;96.58
81125;BME280;72192;52.114;5.424;2024-03-02T07:10:08;100188.38;;;6.16;96.19
81125;BME280;72192;52.114;5.424;2024-03-02T07:12:39;100191.91;;;6.16;96.33
81125;BME280;72192;52.114;5.424;2024-03-02T07:15:09;100173.63;;;6.12;95.57
81125;BME280;72192;52.114;5.424;2024-03-02T07:17:56;100197.88;;;6.28;95.22
81125;BME280;72192;52.114;5.424;2024-03-02T07:20:24;100183.25;;;6.22;95.22
81125;BME280;72192;52.114;5.424;2024-03-02T07:22:54;100184.72;;;6.35;94.89
81125;BME280;72192;52.114;5.424;2024-03-02T07:25:22;100182.03;;;6.35;94.65
81125;BME280;72192;52.114;5.424;2024-03-02T07:27:55;100184.78;;;6.43;94.40
81125;BME280;72192;52.114;5.424;2024-03-02T07:30:24;100188.16;;;6.45;94.25
81125;BME280;72192;52.114;5.424;2024-03-02T07:32:53;100201.03;;;6.59;93.60
81125;BME280;72192;52.114;5.424;2024-03-02T07:35:22;100197.19;;;6.61;93.72
81125;BME280;72192;52.114;5.424;2024-03-02T07:37:54;100206.84;;;6.72;93.50
81125;BME280;72192;52.114;5.424;2024-03-02T07:40:24;100215.66;;;6.82;92.59
81125;BME280;72192;52.114;5.424;2024-03-02T07:42:51;100207.44;;;6.84;92.92
81125;BME280;72192;52.114;5.424;2024-03-02T07:45:19;100207.66;;;6.90;92.44
81125;BME280;72192;52.114;5.424;2024-03-02T07:47:47;100210.78;;;7.04;92.33
81125;BME280;72192;52.114;5.424;2024-03-02T07:50:19;100195.69;;;7.03;91.09
81125;BME280;72192;52.114;5.424;2024-03-02T07:52:47;100201.06;;;7.37;89.76
81125;BME280;72192;52.114;5.424;2024-03-02T07:55:17;100203.41;;;7.32;89.75
81125;BME280;72192;52.114;5.424;2024-03-02T07:57:45;100218.84;;;7.30;90.48
81125;BME280;72192;52.114;5.424;2024-03-02T08:00:14;100195.88;;;7.35;89.81
81125;BME280;72192;52.114;5.424;2024-03-02T08:02:43;100202.19;;;7.26;90.22
81125;BME280;72192;52.114;5.424;2024-03-02T08:05:14;100219.94;;;7.19;90.34
81125;BME280;72192;52.114;5.424;2024-03-02T08:07:44;100239.19;;;7.14;91.51
81125;BME280;72192;52.114;5.424;2024-03-02T08:10:19;100232.75;;;7.07;90.68
81125;BME280;72192;52.114;5.424;2024-03-02T08:12:50;100219.09;;;6.93;90.97
81125;BME280;72192;52.114;5.424;2024-03-02T08:15:18;100227.81;;;6.95;90.39
81125;BME280;72192;52.114;5.424;2024-03-02T08:17:47;100215.50;;;6.84;91.13
81125;BME280;72192;52.114;5.424;2024-03-02T08:20:19;100216.56;;;6.91;90.64
81125;BME280;72192;52.114;5.424;2024-03-02T08:22:48;100239.84;;;7.08;90.69
81125;BME280;72192;52.114;5.424;2024-03-02T08:25:16;100221.63;;;7.20;90.10
81125;BME280;72192;52.114;5.424;2024-03-02T08:27:44;100242.56;;;7.68;88.74
81125;BME280;72192;52.114;5.424;2024-03-02T08:30:13;100230.97;;;8.10;86.80
81125;BME280;72192;52.114;5.424;2024-03-02T08:32:41;100215.47;;;8.46;84.64
81125;BME280;72192;52.114;5.424;2024-03-02T08:35:09;100213.72;;;8.29;84.68
81125;BME280;72192;52.114;5.424;2024-03-02T08:37:41;100238.22;;;8.18;85.71
81125;BME280;72192;52.114;5.424;2024-03-02T08:40:11;100236.53;;;8.09;86.20
81125;BME280;72192;52.114;5.424;2024-03-02T08:42:45;100243.56;;;8.10;86.84
81125;BME280;72192;52.114;5.424;2024-03-02T08:45:14;100246.72;;;7.97;86.19
81125;BME280;72192;52.114;5.424;2024-03-02T08:47:44;100239.13;;;7.92;87.05
81125;BME280;72192;52.114;5.424;2024-03-02T08:52:40;100246.75;;;8.05;86.90
81125;BME280;72192;52.114;5.424;2024-03-02T08:55:10;100212.50;;;8.07;86.87
81125;BME280;72192;52.114;5.424;2024-03-02T08:57:41;100229.16;;;8.19;86.15
81125;BME280;72192;52.114;5.424;2024-03-02T09:00:11;100231.34;;;8.23;85.75
81125;BME280;72192;52.114;5.424;2024-03-02T09:02:39;100228.50;;;8.17;85.33
81125;BME280;72192;52.114;5.424;2024-03-02T09:05:08;100230.00;;;8.19;84.67
81125;BME280;72192;52.114;5.424;2024-03-02T09:07:37;100239.09;;;8.26;85.05
81125;BME280;72192;52.114;5.424;2024-03-02T09:10:06;100247.34;;;8.33;83.84
81125;BME280;72192;52.114;5.424;2024-03-02T09:12:35;100241.44;;;8.29;83.80
81125;BME280;72192;52.114;5.424;2024-03-02T09:15:04;100235.91;;;8.31;83.37
81125;BME280;72192;52.114;5.424;2024-03-02T09:17:35;100233.38;;;8.29;82.31
81125;BME280;72192;52.114;5.424;2024-03-02T09:20:05;100230.91;;;8.44;82.11
81125;BME280;72192;52.114;5.424;2024-03-02T09:22:33;100225.88;;;8.41;81.41
81125;BME280;72192;52.114;5.424;2024-03-02T09:25:01;100234.47;;;8.53;80.43
81125;BME280;72192;52.114;5.424;2024-03-02T09:27:32;100234.97;;;8.65;79.70
81125;BME280;72192;52.114;5.424;2024-03-02T09:30:00;100224.06;;;8.66;79.20
81125;BME280;72192;52.114;5.424;2024-03-02T09:32:28;100230.78;;;8.70;78.67
81125;BME280;72192;52.114;5.424;2024-03-02T09:34:57;100228.59;;;8.82;78.46
81125;BME280;72192;52.114;5.424;2024-03-02T09:37:26;100229.63;;;8.89;77.17
81125;BME280;72192;52.114;5.424;2024-03-02T09:39:56;100230.97;;;9.01;77.64
81125;BME280;72192;52.114;5.424;2024-03-02T09:42:25;100216.34;;;8.96;75.16
81125;BME280;72192;52.114;5.424;2024-03-02T09:44:53;100268.47;;;9.11;74.72
81125;BME280;72192;52.114;5.424;2024-03-02T09:47:21;100255.84;;;9.03;75.28
81125;BME280;72192;52.114;5.424;2024-03-02T09:49:50;100258.91;;;9.08;74.85
81125;BME280;72192;52.114;5.424;2024-03-02T09:52:18;100254.00;;;9.12;74.23
81125;BME280;72192;52.114;5.424;2024-03-02T09:54:47;100236.34;;;9.17;73.06
81125;BME280;72192;52.114;5.424;2024-03-02T09:57:16;100240.84;;;9.33;73.50
81125;BME280;72192;52.114;5.424;2024-03-02T09:59:44;100257.34;;;9.46;74.05
81125;BME280;72192;52.114;5.424;2024-03-02T10:02:15;100247.06;;;9.50;72.65
81125;BME280;72192;52.114;5.424;2024-03-02T10:04:43;100239.16;;;9.40;72.40
81125;BME280;72192;52.114;5.424;2024-03-02T10:07:16;100256.31;;;9.56;72.39
81125;BME280;72192;52.114;5.424;2024-03-02T10:09:48;100248.06;;;9.57;71.88
81125;BME280;72192;52.114;5.424;2024-03-02T10:12:17;100246.56;;;9.55;71.98
81125;BME280;72192;52.114;5.424;2024-03-02T10:14:46;100256.63;;;9.69;72.06
81125;BME280;72192;52.114;5.424;2024-03-02T10:17:17;100246.50;;;9.71;71.21
81125;BME280;72192;52.114;5.424;2024-03-02T10:19:47;100239.22;;;9.80;71.21
81125;BME280;72192;52.114;5.424;2024-03-02T10:22:23;100243.75;;;9.87;68.66
81125;BME280;72192;52.114;5.424;2024-03-02T10:24:51;100244.59;;;9.88;70.84
81125;BME280;72192;52.114;5.424;2024-03-02T10:27:28;100247.06;;;10.05;70.48
81125;BME280;72192;52.114;5.424;2024-03-02T10:29:57;100252.53;;;10.20;70.48
81125;BME280;72192;52.114;5.424;2024-03-02T10:32:26;100253.91;;;10.16;69.95
81125;BME280;72192;52.114;5.424;2024-03-02T10:34:55;100250.03;;;10.11;69.68
81125;BME280;72192;52.114;5.424;2024-03-02T10:37:25;100213.13;;;10.11;67.70
81125;BME280;72192;52.114;5.424;2024-03-02T10:39:54;100243.47;;;10.13;68.91
81125;BME280;72192;52.114;5.424;2024-03-02T10:42:23;100237.53;;;10.18;69.07
81125;BME280;72192;52.114;5.424;2024-03-02T10:44:52;100231.50;;;10.16;69.23
81125;BME280;72192;52.114;5.424;2024-03-02T10:47:21;100219.69;;;10.17;68.09
81125;BME280;72192;52.114;5.424;2024-03-02T10:49:52;100233.78;;;10.35;69.24
81125;BME280;72192;52.114;5.424;2024-03-02T10:52:21;100215.97;;;10.26;69.40
81125;BME280;72192;52.114;5.424;2024-03-02T10:54:50;100211.47;;;10.41;67.86
81125;BME280;72192;52.114;5.424;2024-03-02T10:57:21;100202.91;;;10.38;67.87
81125;BME280;72192;52.114;5.424;2024-03-02T10:59:56;100209.28;;;10.45;67.12
81125;BME280;72192;52.114;5.424;2024-03-02T11:02:31;100194.00;;;10.52;68.13
81125;BME280;72192;52.114;5.424;2024-03-02T11:05:05;100203.50;;;10.48;67.01
81125;BME280;72192;52.114;5.424;2024-03-02T11:07:39;100202.78;;;10.54;65.90
81125;BME280;72192;52.114;5.424;2024-03-02T11:10:09;100199.97;;;10.47;64.73
81125;BME280;72192;52.114;5.424;2024-03-02T11:12:48;100208.66;;;10.80;66.49
81125;BME280;72192;52.114;5.424;2024-03-02T11:15:24;100197.78;;;10.88;66.24
81125;BME280;72192;52.114;5.424;2024-03-02T11:17:55;100211.66;;;10.85;64.67
81125;BME280;72192;52.114;5.424;2024-03-02T11:22:51;100200.25;;;10.75;63.58
81125;BME280;72192;52.114;5.424;2024-03-02T11:25:27;100217.66;;;10.96;63.57
81125;BME280;72192;52.114;5.424;2024-03-02T11:33:03;100215.47;;;11.14;61.12
81125;BME280;72192;52.114;5.424;2024-03-02T11:35:43;100216.03;;;11.24;63.41
81125;BME280;72192;52.114;5.424;2024-03-02T11:40:45;100209.50;;;11.18;60.94
81125;BME280;72192;52.114;5.424;2024-03-02T11:43:15;100171.75;;;11.10;59.82
81125;BME280;72192;52.114;5.424;2024-03-02T11:45:44;100196.28;;;11.24;60.48
81125;BME280;72192;52.114;5.424;2024-03-02T11:54:22;100190.53;;;11.41;58.82
81125;BME280;72192;52.114;5.424;2024-03-02T11:59:20;100164.72;;;11.54;57.06
81125;BME280;72192;52.114;5.424;2024-03-02T12:01:49;100185.13;;;11.71;57.83
81125;BME280;72192;52.114;5.424;2024-03-02T12:04:18;100175.91;;;11.80;57.15
81125;BME280;72192;52.114;5.424;2024-03-02T12:06:46;100180.72;;;11.70;55.58
81125;BME280;72192;52.114;5.424;2024-03-02T12:09:22;100174.47;;;11.69;56.15
81125;BME280;72192;52.114;5.424;2024-03-02T12:12:07;100171.88;;;11.91;55.23
81125;BME280;72192;52.114;5.424;2024-03-02T12:14:38;100163.03;;;11.82;55.83
81125;BME280;72192;52.114;5.424;2024-03-02T12:17:06;100156.41;;;11.85;56.85
81125;BME280;72192;52.114;5.424;2024-03-02T12:19:38;100157.50;;;11.75;56.30
81125;BME280;72192;52.114;5.424;2024-03-02T12:22:12;100170.47;;;11.95;57.20
81125;BME280;72192;52.114;5.424;2024-03-02T12:24:41;100153.94;;;12.04;56.48
81125;BME280;72192;52.114;5.424;2024-03-02T12:27:09;100153.78;;;11.91;57.72
81125;BME280;72192;52.114;5.424;2024-03-02T12:29:38;100150.91;;;12.14;57.58
81125;BME280;72192;52.114;5.424;2024-03-02T12:32:07;100152.16;;;12.33;57.35
81125;BME280;72192;52.114;5.424;2024-03-02T12:34:37;100136.03;;;12.46;58.23
81125;BME280;72192;52.114;5.424;2024-03-02T12:37:06;100145.75;;;12.83;57.68
81125;BME280;72192;52.114;5.424;2024-03-02T12:39:34;100152.44;;;13.09;58.20
81125;BME280;72192;52.114;5.424;2024-03-02T12:42:04;100150.41;;;13.17;58.27
81125;BME280;72192;52.114;5.424;2024-03-02T12:44:33;100140.78;;;13.15;57.22
81125;BME280;72192;52.114;5.424;2024-03-02T12:47:01;100116.31;;;13.36;57.57
81125;BME280;72192;52.114;5.424;2024-03-02T12:49:28;100125.59;;;13.48;56.46
81125;BME280;72192;52.114;5.424;2024-03-02T12:51:59;100117.94;;;13.59;55.68
81125;BME280;72192;52.114;5.424;2024-03-02T12:54:27;100112.28;;;13.60;53.80
81125;BME280;72192;52.114;5.424;2024-03-02T12:56:56;100099.56;;;13.61;53.46
81125;BME280;72192;52.114;5.424;2024-03-02T12:59:25;100097.91;;;13.60;54.89
81125;BME280;72192;52.114;5.424;2024-03-02T13:01:55;100114.53;;;13.98;54.25
81125;BME280;72192;52.114;5.424;2024-03-02T13:04:30;100113.50;;;13.99;54.39
81125;BME280;72192;52.114;5.424;2024-03-02T13:06:59;100103.81;;;13.83;54.70
81125;BME280;72192;52.114;5.424;2024-03-02T13:09:28;100099.91;;;14.05;53.51
81125;BME280;72192;52.114;5.424;2024-03-02T13:11:57;100099.28;;;13.97;52.69
81125;BME280;72192;52.114;5.424;2024-03-02T13:14:26;100097.84;;;14.14;52.77
81125;BME280;72192;52.114;5.424;2024-03-02T13:16:57;100107.56;;;14.56;53.23
81125;BME280;72192;52.114;5.424;2024-03-02T13:19:26;100121.09;;;14.43;53.12
81125;BME280;72192;52.114;5.424;2024-03-02T13:22:01;100108.38;;;14.50;51.05
81125;BME280;72192;52.114;5.424;2024-03-02T13:24:35;100112.09;;;14.43;52.62
81125;BME280;72192;52.114;5.424;2024-03-02T13:27:04;100115.50;;;14.51;52.68
81125;BME280;72192;52.114;5.424;2024-03-02T13:29:39;100119.50;;;14.95;53.42
81125;BME280;72192;52.114;5.424;2024-03-02T13:32:09;100108.50;;;15.48;51.46
81125;BME280;72192;52.114;5.424;2024-03-02T13:34:38;100105.09;;;15.59;50.67
81125;BME280;72192;52.114;5.424;2024-03-02T13:37:06;100093.44;;;15.39;50.15
81125;BME280;72192;52.114;5.424;2024-03-02T13:39:33;100097.09;;;14.80;49.75
81125;BME280;72192;52.114;5.424;2024-03-02T13:44:37;100098.38;;;14.77;50.47
81125;BME280;72192;52.114;5.424;2024-03-02T13:47:08;100102.03;;;15.36;50.41
81125;BME280;72192;52.114;5.424;2024-03-02T13:49:36;100099.75;;;15.91;49.28
81125;BME280;72192;52.114;5.424;2024-03-02T13:52:06;100110.59;;;15.46;49.90
81125;BME280;72192;52.114;5.424;2024-03-02T13:54:46;100091.84;;;14.39;51.12